sensor_id;sensor_type;location;lat;lon;timestamp;temperature;humidity
34145;HTU21D;69555;53.014;8.886;2024-03-07T00:02:10;2.01;103.10
34145;HTU21D;69555;53.014;8.886;2024-03-07T00:04:37;1.87;103.80
34145;HTU21D;69555;53.014;8.886;2024-03-07T00:07:03;1.82;103.97
34145;HTU21D;69555;53.014;8.886;2024-03-07T00:09:31;1.87;103.82
34145;HTU21D;69555;53.014;8.886;2024-03-07T00:11:57;1.90;103.78
34145;HTU21D;69555;53.014;8.886;2024-03-07T00:14:22;1.83;103.97
34145;HTU21D;69555;53.014;8.886;2024-03-07T00:16:55;1.78;104.33
34145;HTU21D;69555;53.014;8.886;2024-03-07T00:19:22;1.84;104.44
34145;HTU21D;69555;53.014;8.886;2024-03-07T00:21:51;1.86;104.15
34145;HTU21D;69555;53.014;8.886;2024-03-07T00:24:16;1.95;103.92
34145;HTU21D;69555;53.014;8.886;2024-03-07T00:26:42;1.79;104.22
34145;HTU21D;69555;53.014;8.886;2024-03-07T00:29:07;1.77;104.20
34145;HTU21D;69555;53.014;8.886;2024-03-07T00:31:33;1.79;103.66
34145;HTU21D;69555;53.014;8.886;2024-03-07T00:33:59;1.76;104.23
34145;HTU21D;69555;53.014;8.886;2024-03-07T00:36:26;1.73;103.98
34145;HTU21D;69555;53.014;8.886;2024-03-07T00:38:53;1.88;103.66
34145;HTU21D;69555;53.014;8.886;2024-03-07T00:41:19;1.83;103.72
34145;HTU21D;69555;53.014;8.886;2024-03-07T00:43:45;1.83;103.63
34145;HTU21D;69555;53.014;8.886;2024-03-07T00:46:11;1.92;102.96
34145;HTU21D;69555;53.014;8.886;2024-03-07T00:48:37;1.76;104.32
34145;HTU21D;69555;53.014;8.886;2024-03-07T00:51:04;1.67;104.90
34145;HTU21D;69555;53.014;8.886;2024-03-07T00:53:31;1.82;103.98
34145;HTU21D;69555;53.014;8.886;2024-03-07T00:55:57;1.78;104.09
34145;HTU21D;69555;53.014;8.886;2024-03-07T00:58:24;1.64;104.83
34145;HTU21D;69555;53.014;8.886;2024-03-07T01:00:51;1.76;104.83
34145;HTU21D;69555;53.014;8.886;2024-03-07T01:03:18;1.75;105.23
34145;HTU21D;69555;53.014;8.886;2024-03-07T01:05:45;1.54;106.00
34145;HTU21D;69555;53.014;8.886;2024-03-07T01:08:11;1.67;105.56
34145;HTU21D;69555;53.014;8.886;2024-03-07T01:10:38;1.68;105.56
34145;HTU21D;69555;53.014;8.886;2024-03-07T01:13:04;1.57;105.91
34145;HTU21D;69555;53.014;8.886;2024-03-07T01:15:35;1.68;105.80
34145;HTU21D;69555;53.014;8.886;2024-03-07T01:18:03;1.52;106.07
34145;HTU21D;69555;53.014;8.886;2024-03-07T01:20:29;1.46;106.50
34145;HTU21D;69555;53.014;8.886;2024-03-07T01:22:55;1.50;106.34
34145;HTU21D;69555;53.014;8.886;2024-03-07T01:25:24;1.66;105.59
34145;HTU21D;69555;53.014;8.886;2024-03-07T01:27:50;1.53;106.09
34145;HTU21D;69555;53.014;8.886;2024-03-07T01:30:17;1.63;105.99
34145;HTU21D;69555;53.014;8.886;2024-03-07T01:32:44;1.50;106.24
34145;HTU21D;69555;53.014;8.886;2024-03-07T01:35:10;1.66;105.45
34145;HTU21D;69555;53.014;8.886;2024-03-07T01:37:37;1.68;105.74
34145;HTU21D;69555;53.014;8.886;2024-03-07T01:40:04;1.50;106.61
34145;HTU21D;69555;53.014;8.886;2024-03-07T01:42:31;1.52;106.18
34145;HTU21D;69555;53.014;8.886;2024-03-07T01:44:58;1.27;108.08
34145;HTU21D;69555;53.014;8.886;2024-03-07T01:47:24;1.36;107.31
34145;HTU21D;69555;53.014;8.886;2024-03-07T01:49:51;1.20;108.25
34145;HTU21D;69555;53.014;8.886;2024-03-07T01:52:18;1.17;108.62
34145;HTU21D;69555;53.014;8.886;2024-03-07T01:54:43;1.10;108.91
34145;HTU21D;69555;53.014;8.886;2024-03-07T01:57:10;1.13;109.39
34145;HTU21D;69555;53.014;8.886;2024-03-07T01:59:37;1.08;108.81
34145;HTU21D;69555;53.014;8.886;2024-03-07T02:02:03;1.03;109.63
34145;HTU21D;69555;53.014;8.886;2024-03-07T02:04:28;1.01;110.08
34145;HTU21D;69555;53.014;8.886;2024-03-07T02:06:54;0.94;110.45
34145;HTU21D;69555;53.014;8.886;2024-03-07T02:09:21;0.98;110.31
34145;HTU21D;69555;53.014;8.886;2024-03-07T02:11:52;1.06;110.12
34145;HTU21D;69555;53.014;8.886;2024-03-07T02:14:19;1.03;110.45
34145;HTU21D;69555;53.014;8.886;2024-03-07T02:16:44;0.90;110.62
34145;HTU21D;69555;53.014;8.886;2024-03-07T02:19:14;0.84;111.20
34145;HTU21D;69555;53.014;8.886;2024-03-07T02:21:40;0.78;111.69
34145;HTU21D;69555;53.014;8.886;2024-03-07T02:24:06;0.71;112.55
34145;HTU21D;69555;53.014;8.886;2024-03-07T02:26:31;0.77;112.89
34145;HTU21D;69555;53.014;8.886;2024-03-07T02:28:56;0.77;113.21
34145;HTU21D;69555;53.014;8.886;2024-03-07T02:31:23;0.76;113.57
34145;HTU21D;69555;53.014;8.886;2024-03-07T02:34:01;0.75;114.30
34145;HTU21D;69555;53.014;8.886;2024-03-07T02:36:28;0.76;114.45
34145;HTU21D;69555;53.014;8.886;2024-03-07T02:38:53;0.51;116.04
34145;HTU21D;69555;53.014;8.886;2024-03-07T02:41:19;0.46;116.89
34145;HTU21D;69555;53.014;8.886;2024-03-07T02:43:45;0.43;117.38
34145;HTU21D;69555;53.014;8.886;2024-03-07T02:46:10;0.36;118.10
34145;HTU21D;69555;53.014;8.886;2024-03-07T02:48:38;0.43;118.34
34145;HTU21D;69555;53.014;8.886;2024-03-07T02:51:05;0.44;118.88
34145;HTU21D;69555;53.014;8.886;2024-03-07T02:53:35;0.44;118.99
34145;HTU21D;69555;53.014;8.886;2024-03-07T02:56:00;0.47;118.99
34145;HTU21D;69555;53.014;8.886;2024-03-07T02:58:27;0.50;118.99
34145;HTU21D;69555;53.014;8.886;2024-03-07T03:01:00;0.52;118.99
34145;HTU21D;69555;53.014;8.886;2024-03-07T03:03:26;0.46;118.99
34145;HTU21D;69555;53.014;8.886;2024-03-07T03:05:53;0.53;118.99
34145;HTU21D;69555;53.014;8.886;2024-03-07T03:08:19;0.53;118.99
34145;HTU21D;69555;53.014;8.886;2024-03-07T03:10:45;0.52;118.99
34145;HTU21D;69555;53.014;8.886;2024-03-07T03:13:11;0.65;118.99
34145;HTU21D;69555;53.014;8.886;2024-03-07T03:15:36;0.71;118.99
34145;HTU21D;69555;53.014;8.886;2024-03-07T03:18:04;0.71;118.99
34145;HTU21D;69555;53.014;8.886;2024-03-07T03:20:30;0.64;118.99
34145;HTU21D;69555;53.014;8.886;2024-03-07T03:23:01;0.65;118.99
34145;HTU21D;69555;53.014;8.886;2024-03-07T03:25:28;0.59;118.99
34145;HTU21D;69555;53.014;8.886;2024-03-07T03:27:54;0.61;118.99
34145;HTU21D;69555;53.014;8.886;2024-03-07T03:30:19;0.73;118.99
34145;HTU21D;69555;53.014;8.886;2024-03-07T03:32:46;0.68;118.99
34145;HTU21D;69555;53.014;8.886;2024-03-07T03:35:13;0.69;118.99
34145;HTU21D;69555;53.014;8.886;2024-03-07T03:37:42;0.83;118.99
34145;HTU21D;69555;53.014;8.886;2024-03-07T03:40:08;0.79;118.99
34145;HTU21D;69555;53.014;8.886;2024-03-07T03:42:40;0.72;118.99
34145;HTU21D;69555;53.014;8.886;2024-03-07T03:45:08;0.72;118.99
34145;HTU21D;69555;53.014;8.886;2024-03-07T03:47:36;0.76;118.99
34145;HTU21D;69555;53.014;8.886;2024-03-07T03:50:05;0.73;118.99
34145;HTU21D;69555;53.014;8.886;2024-03-07T03:52:33;0.80;118.99
34145;HTU21D;69555;53.014;8.886;2024-03-07T03:55:02;0.78;118.99
34145;HTU21D;69555;53.014;8.886;2024-03-07T03:57:32;0.69;118.99
34145;HTU21D;69555;53.014;8.886;2024-03-07T03:59:59;0.77;118.99
34145;HTU21D;69555;53.014;8.886;2024-03-07T04:02:26;0.79;118.99
34145;HTU21D;69555;53.014;8.886;2024-03-07T04:04:53;0.71;118.99
34145;HTU21D;69555;53.014;8.886;2024-03-07T04:07:19;0.80;118.99
34145;HTU21D;69555;53.014;8.886;2024-03-07T04:09:45;0.74;118.99
34145;HTU21D;69555;53.014;8.886;2024-03-07T04:12:11;0.80;118.99
34145;HTU21D;69555;53.014;8.886;2024-03-07T04:14:43;0.81;118.99
34145;HTU21D;69555;53.014;8.886;2024-03-07T04:17:10;0.76;118.99
34145;HTU21D;69555;53.014;8.886;2024-03-07T04:19:42;0.81;118.99
34145;HTU21D;69555;53.014;8.886;2024-03-07T04:22:09;0.83;118.99
34145;HTU21D;69555;53.014;8.886;2024-03-07T04:24:35;0.93;118.99
34145;HTU21D;69555;53.014;8.886;2024-03-07T04:27:04;1.07;118.99
34145;HTU21D;69555;53.014;8.886;2024-03-07T04:29:33;0.97;118.99
34145;HTU21D;69555;53.014;8.886;2024-03-07T04:32:00;0.99;118.99
34145;HTU21D;69555;53.014;8.886;2024-03-07T04:34:28;1.05;118.99
34145;HTU21D;69555;53.014;8.886;2024-03-07T04:36:57;1.08;118.99
34145;HTU21D;69555;53.014;8.886;2024-03-07T04:39:25;1.10;118.99
34145;HTU21D;69555;53.014;8.886;2024-03-07T04:42:02;1.09;118.99
34145;HTU21D;69555;53.014;8.886;2024-03-07T04:44:39;1.16;118.99
34145;HTU21D;69555;53.014;8.886;2024-03-07T04:47:07;1.12;118.99
34145;HTU21D;69555;53.014;8.886;2024-03-07T04:49:34;1.13;118.99
34145;HTU21D;69555;53.014;8.886;2024-03-07T04:52:02;1.21;118.99
34145;HTU21D;69555;53.014;8.886;2024-03-07T04:54:30;1.32;118.99
34145;HTU21D;69555;53.014;8.886;2024-03-07T04:56:58;1.26;118.99
34145;HTU21D;69555;53.014;8.886;2024-03-07T04:59:24;1.46;118.99
34145;HTU21D;69555;53.014;8.886;2024-03-07T05:01:52;1.42;118.99
34145;HTU21D;69555;53.014;8.886;2024-03-07T05:04:18;1.51;118.99
34145;HTU21D;69555;53.014;8.886;2024-03-07T05:06:45;1.47;118.99
34145;HTU21D;69555;53.014;8.886;2024-03-07T05:09:15;1.54;118.99
34145;HTU21D;69555;53.014;8.886;2024-03-07T05:11:55;1.66;118.99
34145;HTU21D;69555;53.014;8.886;2024-03-07T05:14:21;1.69;118.99
34145;HTU21D;69555;53.014;8.886;2024-03-07T05:16:55;1.73;118.99
34145;HTU21D;69555;53.014;8.886;2024-03-07T05:19:32;1.72;118.99
34145;HTU21D;69555;53.014;8.886;2024-03-07T05:21:59;1.86;118.99
34145;HTU21D;69555;53.014;8.886;2024-03-07T05:24:25;2.12;118.99
34145;HTU21D;69555;53.014;8.886;2024-03-07T05:26:51;2.16;118.99
34145;HTU21D;69555;53.014;8.886;2024-03-07T05:29:18;2.30;118.99
34145;HTU21D;69555;53.014;8.886;2024-03-07T05:31:46;2.35;118.99
34145;HTU21D;69555;53.014;8.886;2024-03-07T05:34:16;2.47;118.99
34145;HTU21D;69555;53.014;8.886;2024-03-07T05:36:46;2.41;118.99
34145;HTU21D;69555;53.014;8.886;2024-03-07T05:39:14;2.40;118.99
34145;HTU21D;69555;53.014;8.886;2024-03-07T05:41:41;2.38;118.99
34145;HTU21D;69555;53.014;8.886;2024-03-07T05:44:09;2.41;118.99
34145;HTU21D;69555;53.014;8.886;2024-03-07T05:46:39;2.49;118.99
34145;HTU21D;69555;53.014;8.886;2024-03-07T05:49:13;2.56;118.76
34145;HTU21D;69555;53.014;8.886;2024-03-07T05:51:41;2.57;118.50
34145;HTU21D;69555;53.014;8.886;2024-03-07T05:54:13;2.61;118.26
34145;HTU21D;69555;53.014;8.886;2024-03-07T05:56:41;2.70;118.24
34145;HTU21D;69555;53.014;8.886;2024-03-07T05:59:08;2.68;118.05
34145;HTU21D;69555;53.014;8.886;2024-03-07T06:01:38;3.04;117.63
34145;HTU21D;69555;53.014;8.886;2024-03-07T06:04:10;2.75;117.21
34145;HTU21D;69555;53.014;8.886;2024-03-07T06:06:37;2.76;117.20
34145;HTU21D;69555;53.014;8.886;2024-03-07T06:09:07;2.86;116.97
34145;HTU21D;69555;53.014;8.886;2024-03-07T06:11:38;2.90;116.53
34145;HTU21D;69555;53.014;8.886;2024-03-07T06:14:06;2.86;116.76
34145;HTU21D;69555;53.014;8.886;2024-03-07T06:16:40;2.93;116.93
34145;HTU21D;69555;53.014;8.886;2024-03-07T06:19:08;2.80;117.47
34145;HTU21D;69555;53.014;8.886;2024-03-07T06:21:36;2.90;116.79
34145;HTU21D;69555;53.014;8.886;2024-03-07T06:24:03;2.90;117.23
34145;HTU21D;69555;53.014;8.886;2024-03-07T06:26:35;2.90;117.09
34145;HTU21D;69555;53.014;8.886;2024-03-07T06:29:13;2.94;116.81
34145;HTU21D;69555;53.014;8.886;2024-03-07T06:31:40;2.88;116.57
34145;HTU21D;69555;53.014;8.886;2024-03-07T06:34:09;2.83;116.54
34145;HTU21D;69555;53.014;8.886;2024-03-07T06:36:39;2.79;117.28
34145;HTU21D;69555;53.014;8.886;2024-03-07T06:39:07;2.85;117.44
34145;HTU21D;69555;53.014;8.886;2024-03-07T06:41:38;2.89;117.35
34145;HTU21D;69555;53.014;8.886;2024-03-07T06:44:05;2.90;117.20
34145;HTU21D;69555;53.014;8.886;2024-03-07T06:46:33;2.97;117.34
34145;HTU21D;69555;53.014;8.886;2024-03-07T06:49:00;3.00;117.09
34145;HTU21D;69555;53.014;8.886;2024-03-07T06:51:27;2.98;117.13
34145;HTU21D;69555;53.014;8.886;2024-03-07T06:53:54;3.04;117.39
34145;HTU21D;69555;53.014;8.886;2024-03-07T06:56:22;2.99;117.19
34145;HTU21D;69555;53.014;8.886;2024-03-07T06:58:50;3.01;117.03
34145;HTU21D;69555;53.014;8.886;2024-03-07T07:01:17;3.05;117.11
34145;HTU21D;69555;53.014;8.886;2024-03-07T07:03:45;3.16;117.09
34145;HTU21D;69555;53.014;8.886;2024-03-07T07:06:12;3.14;117.34
34145;HTU21D;69555;53.014;8.886;2024-03-07T07:08:38;3.15;117.72
34145;HTU21D;69555;53.014;8.886;2024-03-07T07:11:05;3.26;117.83
34145;HTU21D;69555;53.014;8.886;2024-03-07T07:13:32;3.18;117.93
34145;HTU21D;69555;53.014;8.886;2024-03-07T07:15:59;3.28;118.13
34145;HTU21D;69555;53.014;8.886;2024-03-07T07:18:25;3.33;117.76
34145;HTU21D;69555;53.014;8.886;2024-03-07T07:20:52;3.36;117.78
34145;HTU21D;69555;53.014;8.886;2024-03-07T07:23:19;3.41;117.89
34145;HTU21D;69555;53.014;8.886;2024-03-07T07:25:46;3.57;117.50
34145;HTU21D;69555;53.014;8.886;2024-03-07T07:28:13;3.55;117.05
34145;HTU21D;69555;53.014;8.886;2024-03-07T07:30:39;3.56;117.20
34145;HTU21D;69555;53.014;8.886;2024-03-07T07:33:06;3.58;117.59
34145;HTU21D;69555;53.014;8.886;2024-03-07T07:35:33;3.74;116.94
34145;HTU21D;69555;53.014;8.886;2024-03-07T07:38:01;3.74;116.98
34145;HTU21D;69555;53.014;8.886;2024-03-07T07:40:26;3.80;116.40
34145;HTU21D;69555;53.014;8.886;2024-03-07T07:42:54;3.79;116.40
34145;HTU21D;69555;53.014;8.886;2024-03-07T07:45:22;3.84;116.79
34145;HTU21D;69555;53.014;8.886;2024-03-07T07:47:50;3.83;116.10
34145;HTU21D;69555;53.014;8.886;2024-03-07T07:50:22;3.94;115.93
34145;HTU21D;69555;53.014;8.886;2024-03-07T07:52:55;4.10;115.70
34145;HTU21D;69555;53.014;8.886;2024-03-07T07:55:24;4.00;115.31
34145;HTU21D;69555;53.014;8.886;2024-03-07T07:57:57;3.97;116.11
34145;HTU21D;69555;53.014;8.886;2024-03-07T08:00:25;4.03;116.02
34145;HTU21D;69555;53.014;8.886;2024-03-07T08:03:01;4.15;115.75
34145;HTU21D;69555;53.014;8.886;2024-03-07T08:05:33;4.20;115.78
34145;HTU21D;69555;53.014;8.886;2024-03-07T08:08:02;4.29;115.35
34145;HTU21D;69555;53.014;8.886;2024-03-07T08:10:31;4.39;114.38
34145;HTU21D;69555;53.014;8.886;2024-03-07T08:12:57;4.50;114.12
34145;HTU21D;69555;53.014;8.886;2024-03-07T08:15:26;4.63;113.16
34145;HTU21D;69555;53.014;8.886;2024-03-07T08:17:54;4.74;112.52
34145;HTU21D;69555;53.014;8.886;2024-03-07T08:20:25;4.83;111.81
34145;HTU21D;69555;53.014;8.886;2024-03-07T08:22:51;4.88;112.06
34145;HTU21D;69555;53.014;8.886;2024-03-07T08:25:19;4.97;111.59
34145;HTU21D;69555;53.014;8.886;2024-03-07T08:27:52;5.02;109.47
34145;HTU21D;69555;53.014;8.886;2024-03-07T08:30:19;4.89;110.23
34145;HTU21D;69555;53.014;8.886;2024-03-07T08:32:48;4.80;109.94
34145;HTU21D;69555;53.014;8.886;2024-03-07T08:35:15;4.82;110.24
34145;HTU21D;69555;53.014;8.886;2024-03-07T08:37:47;4.95;109.53
34145;HTU21D;69555;53.014;8.886;2024-03-07T08:40:20;5.30;109.04
34145;HTU21D;69555;53.014;8.886;2024-03-07T08:42:51;5.64;106.50
34145;HTU21D;69555;53.014;8.886;2024-03-07T08:45:18;5.42;105.16
34145;HTU21D;69555;53.014;8.886;2024-03-07T08:47:51;5.15;107.41
34145;HTU21D;69555;53.014;8.886;2024-03-07T08:50:18;5.16;107.73
34145;HTU21D;69555;53.014;8.886;2024-03-07T08:52:46;4.91;107.02
34145;HTU21D;69555;53.014;8.886;2024-03-07T08:55:19;5.07;108.10
34145;HTU21D;69555;53.014;8.886;2024-03-07T08:57:46;5.18;108.86
34145;HTU21D;69555;53.014;8.886;2024-03-07T09:00:14;5.17;107.85
34145;HTU21D;69555;53.014;8.886;2024-03-07T09:02:59;4.97;106.70
34145;HTU21D;69555;53.014;8.886;2024-03-07T09:05:29;4.94;107.50
34145;HTU21D;69555;53.014;8.886;2024-03-07T09:07:56;5.12;107.74
34145;HTU21D;69555;53.014;8.886;2024-03-07T09:10:21;5.04;107.53
34145;HTU21D;69555;53.014;8.886;2024-03-07T09:12:50;5.06;107.48
34145;HTU21D;69555;53.014;8.886;2024-03-07T09:15:16;4.89;107.17
34145;HTU21D;69555;53.014;8.886;2024-03-07T09:17:43;4.93;107.52
34145;HTU21D;69555;53.014;8.886;2024-03-07T09:20:10;4.87;107.08
34145;HTU21D;69555;53.014;8.886;2024-03-07T09:22:41;4.94;108.28
34145;HTU21D;69555;53.014;8.886;2024-03-07T09:25:08;4.84;107.08
34145;HTU21D;69555;53.014;8.886;2024-03-07T09:27:36;4.67;107.01
34145;HTU21D;69555;53.014;8.886;2024-03-07T09:30:03;4.66;106.47
34145;HTU21D;69555;53.014;8.886;2024-03-07T09:32:30;4.74;107.20
34145;HTU21D;69555;53.014;8.886;2024-03-07T09:34:59;4.71;106.50
34145;HTU21D;69555;53.014;8.886;2024-03-07T09:37:27;4.83;105.47
34145;HTU21D;69555;53.014;8.886;2024-03-07T09:39:54;4.83;105.94
34145;HTU21D;69555;53.014;8.886;2024-03-07T09:42:20;4.73;104.95
34145;HTU21D;69555;53.014;8.886;2024-03-07T09:44:48;4.75;104.95
34145;HTU21D;69555;53.014;8.886;2024-03-07T09:47:17;4.74;105.77
34145;HTU21D;69555;53.014;8.886;2024-03-07T09:49:45;4.74;106.06
34145;HTU21D;69555;53.014;8.886;2024-03-07T09:52:13;4.78;105.95
34145;HTU21D;69555;53.014;8.886;2024-03-07T09:54:39;4.83;105.34
34145;HTU21D;69555;53.014;8.886;2024-03-07T09:57:07;4.96;103.79
34145;HTU21D;69555;53.014;8.886;2024-03-07T09:59:36;4.96;102.97
34145;HTU21D;69555;53.014;8.886;2024-03-07T10:02:06;5.01;103.79
34145;HTU21D;69555;53.014;8.886;2024-03-07T10:04:50;4.91;102.13
34145;HTU21D;69555;53.014;8.886;2024-03-07T10:07:19;4.87;102.36
34145;HTU21D;69555;53.014;8.886;2024-03-07T10:09:45;5.00;103.37
34145;HTU21D;69555;53.014;8.886;2024-03-07T10:12:11;4.87;102.60
34145;HTU21D;69555;53.014;8.886;2024-03-07T10:14:50;4.78;102.22
34145;HTU21D;69555;53.014;8.886;2024-03-07T10:17:17;4.80;103.00
34145;HTU21D;69555;53.014;8.886;2024-03-07T10:19:47;4.79;101.82
34145;HTU21D;69555;53.014;8.886;2024-03-07T10:22:14;4.89;102.49
34145;HTU21D;69555;53.014;8.886;2024-03-07T10:24:49;4.90;102.25
34145;HTU21D;69555;53.014;8.886;2024-03-07T10:27:20;4.87;100.19
34145;HTU21D;69555;53.014;8.886;2024-03-07T10:29:52;5.00;99.81
34145;HTU21D;69555;53.014;8.886;2024-03-07T10:32:24;4.80;100.45
34145;HTU21D;69555;53.014;8.886;2024-03-07T10:34:52;4.79;101.12
34145;HTU21D;69555;53.014;8.886;2024-03-07T10:37:19;4.73;100.33
34145;HTU21D;69555;53.014;8.886;2024-03-07T10:39:51;4.76;101.03
34145;HTU21D;69555;53.014;8.886;2024-03-07T10:42:18;4.94;100.81
34145;HTU21D;69555;53.014;8.886;2024-03-07T10:44:47;4.93;101.30
34145;HTU21D;69555;53.014;8.886;2024-03-07T10:47:20;4.88;100.12
34145;HTU21D;69555;53.014;8.886;2024-03-07T10:50:04;4.78;98.80
34145;HTU21D;69555;53.014;8.886;2024-03-07T10:52:49;4.65;99.08
34145;HTU21D;69555;53.014;8.886;2024-03-07T10:58:32;4.48;99.17
34145;HTU21D;69555;53.014;8.886;2024-03-07T11:01:01;4.53;100.09
34145;HTU21D;69555;53.014;8.886;2024-03-07T11:03:31;4.66;99.17
34145;HTU21D;69555;53.014;8.886;2024-03-07T11:05:59;4.66;99.88
34145;HTU21D;69555;53.014;8.886;2024-03-07T11:08:27;4.65;100.96
34145;HTU21D;69555;53.014;8.886;2024-03-07T11:10:52;4.51;101.87
34145;HTU21D;69555;53.014;8.886;2024-03-07T11:13:19;4.48;100.68
34145;HTU21D;69555;53.014;8.886;2024-03-07T11:15:48;4.29;101.76
34145;HTU21D;69555;53.014;8.886;2024-03-07T11:18:15;4.30;101.17
34145;HTU21D;69555;53.014;8.886;2024-03-07T11:20:42;4.31;102.42
34145;HTU21D;69555;53.014;8.886;2024-03-07T11:23:31;4.17;102.24
34145;HTU21D;69555;53.014;8.886;2024-03-07T11:26:10;4.22;102.53
34145;HTU21D;69555;53.014;8.886;2024-03-07T11:28:40;4.32;102.47
34145;HTU21D;69555;53.014;8.886;2024-03-07T11:31:27;4.24;103.27
34145;HTU21D;69555;53.014;8.886;2024-03-07T11:34:16;4.32;102.65
34145;HTU21D;69555;53.014;8.886;2024-03-07T11:36:45;4.33;103.73
34145;HTU21D;69555;53.014;8.886;2024-03-07T11:39:45;4.27;103.28
34145;HTU21D;69555;53.014;8.886;2024-03-07T11:42:30;4.44;101.91
34145;HTU21D;69555;53.014;8.886;2024-03-07T11:45:00;4.35;102.25
34145;HTU21D;69555;53.014;8.886;2024-03-07T11:47:39;4.39;101.95
34145;HTU21D;69555;53.014;8.886;2024-03-07T11:50:10;4.47;102.30
34145;HTU21D;69555;53.014;8.886;2024-03-07T11:52:40;4.73;100.70
34145;HTU21D;69555;53.014;8.886;2024-03-07T11:55:11;4.65;100.99
34145;HTU21D;69555;53.014;8.886;2024-03-07T11:57:38;4.91;100.70
34145;HTU21D;69555;53.014;8.886;2024-03-07T12:00:20;5.03;100.00
34145;HTU21D;69555;53.014;8.886;2024-03-07T12:02:54;5.06;98.99
34145;HTU21D;69555;53.014;8.886;2024-03-07T12:05:20;5.07;98.60
34145;HTU21D;69555;53.014;8.886;2024-03-07T12:07:47;5.08;99.72
34145;HTU21D;69555;53.014;8.886;2024-03-07T12:10:16;5.04;99.17
34145;HTU21D;69555;53.014;8.886;2024-03-07T12:12:44;4.81;100.62
34145;HTU21D;69555;53.014;8.886;2024-03-07T12:15:12;5.01;99.98
34145;HTU21D;69555;53.014;8.886;2024-03-07T12:17:46;4.97;99.97
34145;HTU21D;69555;53.014;8.886;2024-03-07T12:20:17;4.83;100.22
34145;HTU21D;69555;53.014;8.886;2024-03-07T12:23:00;4.74;101.48
34145;HTU21D;69555;53.014;8.886;2024-03-07T12:25:31;4.82;100.36
34145;HTU21D;69555;53.014;8.886;2024-03-07T12:28:05;4.90;99.92
34145;HTU21D;69555;53.014;8.886;2024-03-07T12:30:34;4.84;100.74
34145;HTU21D;69555;53.014;8.886;2024-03-07T12:33:02;4.78;100.25
34145;HTU21D;69555;53.014;8.886;2024-03-07T12:35:33;5.06;100.00
34145;HTU21D;69555;53.014;8.886;2024-03-07T12:38:00;4.98;98.80
34145;HTU21D;69555;53.014;8.886;2024-03-07T12:40:30;4.89;99.95
34145;HTU21D;69555;53.014;8.886;2024-03-07T12:43:00;4.71;101.74
34145;HTU21D;69555;53.014;8.886;2024-03-07T12:45:28;4.75;100.99
34145;HTU21D;69555;53.014;8.886;2024-03-07T12:47:55;4.74;101.11
34145;HTU21D;69555;53.014;8.886;2024-03-07T12:50:21;4.87;101.01
34145;HTU21D;69555;53.014;8.886;2024-03-07T12:52:48;4.76;101.12
34145;HTU21D;69555;53.014;8.886;2024-03-07T12:55:18;4.84;101.39
34145;HTU21D;69555;53.014;8.886;2024-03-07T12:57:46;4.95;100.58
34145;HTU21D;69555;53.014;8.886;2024-03-07T13:00:13;4.88;100.12
34145;HTU21D;69555;53.014;8.886;2024-03-07T13:02:51;4.94;100.86
34145;HTU21D;69555;53.014;8.886;2024-03-07T13:05:17;5.09;99.46
34145;HTU21D;69555;53.014;8.886;2024-03-07T13:07:48;4.98;99.87
34145;HTU21D;69555;53.014;8.886;2024-03-07T13:10:15;4.96;100.15
34145;HTU21D;69555;53.014;8.886;2024-03-07T13:12:42;5.01;100.37
34145;HTU21D;69555;53.014;8.886;2024-03-07T13:15:12;4.84;99.92
34145;HTU21D;69555;53.014;8.886;2024-03-07T13:17:38;4.96;100.32
34145;HTU21D;69555;53.014;8.886;2024-03-07T13:20:04;4.97;99.92
34145;HTU21D;69555;53.014;8.886;2024-03-07T13:22:41;4.95;99.93
34145;HTU21D;69555;53.014;8.886;2024-03-07T13:25:09;4.93;99.77
34145;HTU21D;69555;53.014;8.886;2024-03-07T13:27:41;4.98;100.53
34145;HTU21D;69555;53.014;8.886;2024-03-07T13:30:07;5.01;100.38
34145;HTU21D;69555;53.014;8.886;2024-03-07T13:32:33;4.95;100.75
34145;HTU21D;69555;53.014;8.886;2024-03-07T13:34:59;4.97;100.06
34145;HTU21D;69555;53.014;8.886;2024-03-07T13:37:27;4.89;99.58
34145;HTU21D;69555;53.014;8.886;2024-03-07T13:39:52;4.76;101.42
34145;HTU21D;69555;53.014;8.886;2024-03-07T13:42:18;4.75;100.32
34145;HTU21D;69555;53.014;8.886;2024-03-07T13:44:44;4.72;99.84
34145;HTU21D;69555;53.014;8.886;2024-03-07T13:47:11;4.67;99.69
34145;HTU21D;69555;53.014;8.886;2024-03-07T13:49:38;4.59;99.54
34145;HTU21D;69555;53.014;8.886;2024-03-07T13:52:05;4.58;100.00
34145;HTU21D;69555;53.014;8.886;2024-03-07T13:54:41;4.54;99.86
34145;HTU21D;69555;53.014;8.886;2024-03-07T14:00:01;4.57;101.25
34145;HTU21D;69555;53.014;8.886;2024-03-07T14:06:03;4.75;100.92
34145;HTU21D;69555;53.014;8.886;2024-03-07T14:08:56;4.81;100.65
34145;HTU21D;69555;53.014;8.886;2024-03-07T14:21:06;4.72;99.19
34145;HTU21D;69555;53.014;8.886;2024-03-07T14:24:04;4.65;100.67
34145;HTU21D;69555;53.014;8.886;2024-03-07T14:32:40;4.90;98.15
34145;HTU21D;69555;53.014;8.886;2024-03-07T14:35:25;4.94;98.17
34145;HTU21D;69555;53.014;8.886;2024-03-07T14:38:29;5.10;97.66
34145;HTU21D;69555;53.014;8.886;2024-03-07T14:40:57;5.09;97.55
34145;HTU21D;69555;53.014;8.886;2024-03-07T14:43:24;5.01;97.47
34145;HTU21D;69555;53.014;8.886;2024-03-07T14:45:52;5.18;97.58
34145;HTU21D;69555;53.014;8.886;2024-03-07T14:48:21;5.01;97.00
34145;HTU21D;69555;53.014;8.886;2024-03-07T14:50:48;5.11;97.80
34145;HTU21D;69555;53.014;8.886;2024-03-07T14:53:15;5.24;97.13
34145;HTU21D;69555;53.014;8.886;2024-03-07T14:55:44;5.16;97.68
34145;HTU21D;69555;53.014;8.886;2024-03-07T14:58:10;5.11;96.15
34145;HTU21D;69555;53.014;8.886;2024-03-07T15:00:42;5.18;96.64
34145;HTU21D;69555;53.014;8.886;2024-03-07T15:03:12;5.15;97.66
34145;HTU21D;69555;53.014;8.886;2024-03-07T15:05:41;5.08;96.54
34145;HTU21D;69555;53.014;8.886;2024-03-07T15:08:08;5.06;96.82
34145;HTU21D;69555;53.014;8.886;2024-03-07T15:10:38;5.17;96.45
34145;HTU21D;69555;53.014;8.886;2024-03-07T15:13:07;5.16;95.71
34145;HTU21D;69555;53.014;8.886;2024-03-07T15:15:34;5.13;94.13
34145;HTU21D;69555;53.014;8.886;2024-03-07T15:18:02;5.26;93.58
34145;HTU21D;69555;53.014;8.886;2024-03-07T15:20:29;5.26;95.17
34145;HTU21D;69555;53.014;8.886;2024-03-07T15:22:58;5.20;95.40
34145;HTU21D;69555;53.014;8.886;2024-03-07T15:25:26;5.25;95.97
34145;HTU21D;69555;53.014;8.886;2024-03-07T15:27:54;5.24;95.39
34145;HTU21D;69555;53.014;8.886;2024-03-07T15:30:25;5.19;95.78
34145;HTU21D;69555;53.014;8.886;2024-03-07T15:32:58;5.11;95.20
34145;HTU21D;69555;53.014;8.886;2024-03-07T15:35:26;5.19;95.78
34145;HTU21D;69555;53.014;8.886;2024-03-07T15:37:53;5.28;94.29
34145;HTU21D;69555;53.014;8.886;2024-03-07T15:40:22;5.19;93.16
34145;HTU21D;69555;53.014;8.886;2024-03-07T15:42:50;5.23;93.94
34145;HTU21D;69555;53.014;8.886;2024-03-07T15:45:23;5.35;91.97
34145;HTU21D;69555;53.014;8.886;2024-03-07T15:47:52;5.45;92.29
34145;HTU21D;69555;53.014;8.886;2024-03-07T15:50:23;5.45;90.21
34145;HTU21D;69555;53.014;8.886;2024-03-07T15:52:51;5.47;90.12
34145;HTU21D;69555;53.014;8.886;2024-03-07T15:55:18;5.42;90.69